Terminal Aerodrome Forecast
Issued by NWS Mt. Holly, NJ

Home | Current Version | Previous Version | Text Only | Print | Product List | Glossary On
Versions: 1 2 3 4 5 6 7 8 9 10 11 12 13 14 15 16 17 18 19
662
FTUS41 KPHI 190840 AAA
TAFRDG
TAF AMD
KRDG 190840Z 1909/2006 21017G28KT P6SM VCSH SCT025 OVC050
      TEMPO 1909/1911 6SM -SHRA OVC025
     FM191100 26016G29KT P6SM BKN035
     FM191400 29016G36KT P6SM BKN035
     FM191700 29016G33KT P6SM SCT035
     FM200300 28012KT P6SM SKC=

USA.gov is the U.S. government's official web portal to all federal, state and local government web resources and services.